sensor_id;sensor_type;location;lat;lon;timestamp;pressure;altitude;pressure_sealevel;temperature;humidity
13695;BME280;6919;52.344;14.518;2023-05-23T00:00:02;100388.16;;;17.05;87.14
13695;BME280;6919;52.344;14.518;2023-05-23T00:02:31;100398.91;;;16.92;89.19
13695;BME280;6919;52.344;14.518;2023-05-23T00:05:03;100387.94;;;17.00;87.24
13695;BME280;6919;52.344;14.518;2023-05-23T00:07:31;100400.44;;;17.08;85.58
13695;BME280;6919;52.344;14.518;2023-05-23T00:10:00;100391.06;;;17.04;86.75
13695;BME280;6919;52.344;14.518;2023-05-23T00:12:28;100384.19;;;17.01;86.56
13695;BME280;6919;52.344;14.518;2023-05-23T00:14:56;100381.63;;;16.93;87.12
13695;BME280;6919;52.344;14.518;2023-05-23T00:17:25;100384.19;;;17.01;86.61
13695;BME280;6919;52.344;14.518;2023-05-23T00:19:54;100377.03;;;16.94;87.25
13695;BME280;6919;52.344;14.518;2023-05-23T00:22:23;100373.22;;;16.75;90.72
13695;BME280;6919;52.344;14.518;2023-05-23T00:24:52;100377.19;;;16.79;90.61
13695;BME280;6919;52.344;14.518;2023-05-23T00:27:20;100371.06;;;16.64;93.40
13695;BME280;6919;52.344;14.518;2023-05-23T00:29:48;100367.31;;;16.65;94.54
13695;BME280;6919;52.344;14.518;2023-05-23T00:32:16;100361.84;;;16.59;94.63
13695;BME280;6919;52.344;14.518;2023-05-23T00:34:45;100360.16;;;16.30;98.98
13695;BME280;6919;52.344;14.518;2023-05-23T00:37:14;100367.38;;;16.23;100.00
13695;BME280;6919;52.344;14.518;2023-05-23T00:39:43;100364.56;;;16.10;100.00
13695;BME280;6919;52.344;14.518;2023-05-23T00:42:11;100362.13;;;16.15;100.00
13695;BME280;6919;52.344;14.518;2023-05-23T00:44:40;100360.63;;;16.13;100.00
13695;BME280;6919;52.344;14.518;2023-05-23T00:47:08;100361.44;;;16.07;100.00
13695;BME280;6919;52.344;14.518;2023-05-23T00:49:39;100361.03;;;16.10;100.00
13695;BME280;6919;52.344;14.518;2023-05-23T00:52:08;100361.03;;;16.10;100.00
13695;BME280;6919;52.344;14.518;2023-05-23T00:54:38;100357.03;;;16.06;100.00
13695;BME280;6919;52.344;14.518;2023-05-23T00:57:08;100363.88;;;16.02;100.00
13695;BME280;6919;52.344;14.518;2023-05-23T00:59:37;100356.78;;;16.01;100.00
13695;BME280;6919;52.344;14.518;2023-05-23T01:02:06;100365.75;;;16.01;100.00
13695;BME280;6919;52.344;14.518;2023-05-23T01:04:35;100353.75;;;16.10;100.00
13695;BME280;6919;52.344;14.518;2023-05-23T01:07:04;100349.06;;;16.25;100.00
13695;BME280;6919;52.344;14.518;2023-05-23T01:09:32;100350.19;;;16.31;100.00
13695;BME280;6919;52.344;14.518;2023-05-23T01:12:17;100346.66;;;16.37;100.00
13695;BME280;6919;52.344;14.518;2023-05-23T01:14:58;100343.59;;;16.12;100.00
13695;BME280;6919;52.344;14.518;2023-05-23T01:17:39;100343.63;;;16.19;100.00
13695;BME280;6919;52.344;14.518;2023-05-23T01:20:12;100351.75;;;16.19;100.00
13695;BME280;6919;52.344;14.518;2023-05-23T01:23:09;100345.84;;;15.46;100.00
13695;BME280;6919;52.344;14.518;2023-05-23T01:26:06;100349.44;;;15.17;100.00
13695;BME280;6919;52.344;14.518;2023-05-23T01:28:46;100337.34;;;15.13;100.00
13695;BME280;6919;52.344;14.518;2023-05-23T01:31:18;100333.44;;;15.01;100.00
13695;BME280;6919;52.344;14.518;2023-05-23T01:33:51;100333.63;;;15.00;100.00
13695;BME280;6919;52.344;14.518;2023-05-23T01:36:21;100332.81;;;14.99;100.00
13695;BME280;6919;52.344;14.518;2023-05-23T01:38:50;100328.03;;;15.01;100.00
13695;BME280;6919;52.344;14.518;2023-05-23T01:41:18;100333.75;;;15.06;100.00
13695;BME280;6919;52.344;14.518;2023-05-23T01:43:48;100323.97;;;15.05;100.00
13695;BME280;6919;52.344;14.518;2023-05-23T01:46:17;100317.00;;;15.32;100.00
13695;BME280;6919;52.344;14.518;2023-05-23T01:48:46;100318.44;;;15.49;100.00
13695;BME280;6919;52.344;14.518;2023-05-23T01:51:15;100322.78;;;15.29;100.00
13695;BME280;6919;52.344;14.518;2023-05-23T01:53:44;100309.50;;;15.13;100.00
13695;BME280;6919;52.344;14.518;2023-05-23T01:56:13;100314.47;;;15.09;100.00
13695;BME280;6919;52.344;14.518;2023-05-23T01:58:41;100308.78;;;15.04;100.00
13695;BME280;6919;52.344;14.518;2023-05-23T02:01:11;100306.00;;;14.98;100.00
13695;BME280;6919;52.344;14.518;2023-05-23T02:03:39;100301.34;;;15.06;100.00
13695;BME280;6919;52.344;14.518;2023-05-23T02:06:09;100298.97;;;15.18;100.00
13695;BME280;6919;52.344;14.518;2023-05-23T02:08:37;100292.53;;;15.19;100.00
13695;BME280;6919;52.344;14.518;2023-05-23T02:11:06;100285.91;;;15.21;100.00
13695;BME280;6919;52.344;14.518;2023-05-23T02:13:36;100281.34;;;15.22;100.00
13695;BME280;6919;52.344;14.518;2023-05-23T02:16:05;100285.03;;;15.35;100.00
13695;BME280;6919;52.344;14.518;2023-05-23T02:18:35;100285.78;;;15.29;100.00
13695;BME280;6919;52.344;14.518;2023-05-23T02:21:04;100287.34;;;15.17;100.00
13695;BME280;6919;52.344;14.518;2023-05-23T02:23:32;100283.06;;;15.08;100.00
13695;BME280;6919;52.344;14.518;2023-05-23T02:26:00;100284.44;;;15.19;100.00
13695;BME280;6919;52.344;14.518;2023-05-23T02:28:29;100283.69;;;15.25;100.00
13695;BME280;6919;52.344;14.518;2023-05-23T02:30:57;100277.59;;;15.37;100.00
13695;BME280;6919;52.344;14.518;2023-05-23T02:33:25;100277.75;;;15.15;100.00
13695;BME280;6919;52.344;14.518;2023-05-23T02:35:55;100277.28;;;15.11;100.00
13695;BME280;6919;52.344;14.518;2023-05-23T02:38:23;100280.66;;;15.13;100.00
13695;BME280;6919;52.344;14.518;2023-05-23T02:40:52;100276.16;;;15.20;100.00
13695;BME280;6919;52.344;14.518;2023-05-23T02:43:23;100269.13;;;15.05;100.00
13695;BME280;6919;52.344;14.518;2023-05-23T02:45:51;100280.47;;;15.00;100.00
13695;BME280;6919;52.344;14.518;2023-05-23T02:48:19;100277.22;;;15.05;100.00
13695;BME280;6919;52.344;14.518;2023-05-23T02:50:48;100274.34;;;15.27;100.00
13695;BME280;6919;52.344;14.518;2023-05-23T02:53:17;100268.13;;;15.48;100.00
13695;BME280;6919;52.344;14.518;2023-05-23T02:55:46;100265.47;;;15.54;100.00
13695;BME280;6919;52.344;14.518;2023-05-23T02:58:14;100263.69;;;15.61;100.00
13695;BME280;6919;52.344;14.518;2023-05-23T03:00:42;100257.88;;;15.64;100.00
13695;BME280;6919;52.344;14.518;2023-05-23T03:03:11;100260.59;;;15.64;100.00
13695;BME280;6919;52.344;14.518;2023-05-23T03:05:39;100259.97;;;15.62;100.00
13695;BME280;6919;52.344;14.518;2023-05-23T03:08:08;100252.47;;;15.64;100.00
13695;BME280;6919;52.344;14.518;2023-05-23T03:10:38;100252.09;;;15.67;100.00
13695;BME280;6919;52.344;14.518;2023-05-23T03:13:06;100261.47;;;15.71;100.00
13695;BME280;6919;52.344;14.518;2023-05-23T03:15:34;100250.47;;;15.73;100.00
13695;BME280;6919;52.344;14.518;2023-05-23T03:18:03;100257.53;;;15.74;100.00
13695;BME280;6919;52.344;14.518;2023-05-23T03:20:31;100256.28;;;15.70;100.00
13695;BME280;6919;52.344;14.518;2023-05-23T03:22:59;100255.94;;;15.79;100.00
13695;BME280;6919;52.344;14.518;2023-05-23T03:25:28;100247.22;;;15.84;100.00
13695;BME280;6919;52.344;14.518;2023-05-23T03:27:57;100245.19;;;15.86;100.00
13695;BME280;6919;52.344;14.518;2023-05-23T03:30:26;100244.88;;;15.74;100.00
13695;BME280;6919;52.344;14.518;2023-05-23T03:32:54;100239.34;;;15.61;100.00
13695;BME280;6919;52.344;14.518;2023-05-23T03:35:22;100244.06;;;15.53;100.00
13695;BME280;6919;52.344;14.518;2023-05-23T03:37:51;100236.47;;;15.63;100.00
13695;BME280;6919;52.344;14.518;2023-05-23T03:40:19;100244.13;;;15.59;100.00
13695;BME280;6919;52.344;14.518;2023-05-23T03:43:01;100241.06;;;15.62;100.00
13695;BME280;6919;52.344;14.518;2023-05-23T03:45:30;100243.75;;;15.62;100.00
13695;BME280;6919;52.344;14.518;2023-05-23T03:47:59;100252.69;;;15.63;100.00
13695;BME280;6919;52.344;14.518;2023-05-23T03:50:28;100236.03;;;15.87;100.00
13695;BME280;6919;52.344;14.518;2023-05-23T03:52:56;100239.25;;;16.03;100.00
13695;BME280;6919;52.344;14.518;2023-05-23T03:55:24;100229.38;;;16.17;100.00
13695;BME280;6919;52.344;14.518;2023-05-23T03:57:52;100226.38;;;16.05;100.00
13695;BME280;6919;52.344;14.518;2023-05-23T04:00:23;100243.59;;;15.98;100.00
13695;BME280;6919;52.344;14.518;2023-05-23T04:02:52;100236.19;;;15.79;100.00
13695;BME280;6919;52.344;14.518;2023-05-23T04:05:42;100243.56;;;15.91;100.00
13695;BME280;6919;52.344;14.518;2023-05-23T04:08:11;100239.84;;;15.71;100.00
13695;BME280;6919;52.344;14.518;2023-05-23T04:10:39;100245.59;;;15.89;100.00
13695;BME280;6919;52.344;14.518;2023-05-23T04:13:07;100243.25;;;15.80;100.00
13695;BME280;6919;52.344;14.518;2023-05-23T04:15:38;100244.34;;;15.85;100.00
13695;BME280;6919;52.344;14.518;2023-05-23T04:18:07;100239.09;;;15.77;100.00
13695;BME280;6919;52.344;14.518;2023-05-23T04:20:36;100237.88;;;15.86;100.00
13695;BME280;6919;52.344;14.518;2023-05-23T04:23:04;100233.97;;;15.89;100.00
13695;BME280;6919;52.344;14.518;2023-05-23T04:25:32;100241.09;;;15.96;100.00
13695;BME280;6919;52.344;14.518;2023-05-23T04:28:01;100251.53;;;16.06;100.00
13695;BME280;6919;52.344;14.518;2023-05-23T04:30:29;100250.91;;;15.97;100.00
13695;BME280;6919;52.344;14.518;2023-05-23T04:32:59;100249.41;;;15.95;100.00
13695;BME280;6919;52.344;14.518;2023-05-23T04:35:27;100246.94;;;16.00;100.00
13695;BME280;6919;52.344;14.518;2023-05-23T04:37:56;100251.22;;;16.15;100.00
13695;BME280;6919;52.344;14.518;2023-05-23T04:40:24;100271.00;;;16.50;100.00
13695;BME280;6919;52.344;14.518;2023-05-23T04:42:52;100261.97;;;16.36;100.00
13695;BME280;6919;52.344;14.518;2023-05-23T04:45:21;100263.16;;;16.27;100.00
13695;BME280;6919;52.344;14.518;2023-05-23T04:47:49;100275.00;;;16.26;100.00
13695;BME280;6919;52.344;14.518;2023-05-23T04:50:24;100270.03;;;16.30;100.00
13695;BME280;6919;52.344;14.518;2023-05-23T04:52:57;100262.09;;;16.28;100.00
13695;BME280;6919;52.344;14.518;2023-05-23T04:55:26;100268.19;;;16.03;100.00
13695;BME280;6919;52.344;14.518;2023-05-23T04:57:54;100258.75;;;15.92;100.00
13695;BME280;6919;52.344;14.518;2023-05-23T05:00:22;100271.22;;;15.93;100.00
13695;BME280;6919;52.344;14.518;2023-05-23T05:02:51;100269.66;;;15.78;100.00
13695;BME280;6919;52.344;14.518;2023-05-23T05:05:19;100268.50;;;15.93;100.00
13695;BME280;6919;52.344;14.518;2023-05-23T05:07:49;100268.31;;;15.67;100.00
13695;BME280;6919;52.344;14.518;2023-05-23T05:10:19;100266.38;;;15.40;100.00
13695;BME280;6919;52.344;14.518;2023-05-23T05:12:48;100267.25;;;15.26;100.00
13695;BME280;6919;52.344;14.518;2023-05-23T05:15:17;100266.63;;;15.39;100.00
13695;BME280;6919;52.344;14.518;2023-05-23T05:17:46;100268.38;;;15.32;100.00
13695;BME280;6919;52.344;14.518;2023-05-23T05:20:16;100275.28;;;15.55;100.00
13695;BME280;6919;52.344;14.518;2023-05-23T05:22:57;100269.75;;;15.42;100.00
13695;BME280;6919;52.344;14.518;2023-05-23T05:25:28;100273.78;;;15.32;100.00
13695;BME280;6919;52.344;14.518;2023-05-23T05:28:00;100271.56;;;15.21;100.00
13695;BME280;6919;52.344;14.518;2023-05-23T05:30:32;100277.59;;;15.02;100.00
13695;BME280;6919;52.344;14.518;2023-05-23T05:33:01;100264.06;;;15.16;100.00
13695;BME280;6919;52.344;14.518;2023-05-23T05:35:30;100267.00;;;15.21;100.00
13695;BME280;6919;52.344;14.518;2023-05-23T05:38:00;100261.84;;;15.26;100.00
13695;BME280;6919;52.344;14.518;2023-05-23T05:40:30;100261.56;;;15.15;100.00
13695;BME280;6919;52.344;14.518;2023-05-23T05:42:59;100261.59;;;14.86;100.00
13695;BME280;6919;52.344;14.518;2023-05-23T05:45:27;100266.34;;;14.98;100.00
13695;BME280;6919;52.344;14.518;2023-05-23T05:47:56;100259.00;;;14.92;100.00
13695;BME280;6919;52.344;14.518;2023-05-23T05:50:24;100263.81;;;14.61;100.00
13695;BME280;6919;52.344;14.518;2023-05-23T05:52:52;100283.66;;;14.39;100.00
13695;BME280;6919;52.344;14.518;2023-05-23T05:55:22;100294.75;;;14.21;100.00
13695;BME280;6919;52.344;14.518;2023-05-23T05:57:50;100293.09;;;14.20;100.00
13695;BME280;6919;52.344;14.518;2023-05-23T06:00:20;100295.03;;;14.12;100.00
13695;BME280;6919;52.344;14.518;2023-05-23T06:02:48;100287.00;;;14.26;100.00
13695;BME280;6919;52.344;14.518;2023-05-23T06:05:18;100261.38;;;14.66;100.00
13695;BME280;6919;52.344;14.518;2023-05-23T06:07:48;100252.03;;;14.47;100.00
13695;BME280;6919;52.344;14.518;2023-05-23T06:10:17;100255.56;;;14.33;100.00
13695;BME280;6919;52.344;14.518;2023-05-23T06:12:47;100265.91;;;14.07;100.00
13695;BME280;6919;52.344;14.518;2023-05-23T06:15:15;100267.13;;;14.05;100.00
13695;BME280;6919;52.344;14.518;2023-05-23T06:17:44;100272.97;;;13.94;100.00
13695;BME280;6919;52.344;14.518;2023-05-23T06:20:12;100278.53;;;13.92;100.00
13695;BME280;6919;52.344;14.518;2023-05-23T06:22:41;100280.53;;;13.98;100.00
13695;BME280;6919;52.344;14.518;2023-05-23T06:25:09;100290.03;;;13.86;100.00
13695;BME280;6919;52.344;14.518;2023-05-23T06:27:38;100290.31;;;13.77;100.00
13695;BME280;6919;52.344;14.518;2023-05-23T06:30:09;100279.03;;;13.96;100.00
13695;BME280;6919;52.344;14.518;2023-05-23T06:32:37;100288.06;;;14.03;100.00
13695;BME280;6919;52.344;14.518;2023-05-23T06:35:08;100268.72;;;13.99;100.00
13695;BME280;6919;52.344;14.518;2023-05-23T06:37:39;100271.59;;;13.98;100.00
13695;BME280;6919;52.344;14.518;2023-05-23T06:40:12;100271.19;;;14.23;100.00
13695;BME280;6919;52.344;14.518;2023-05-23T06:42:40;100269.53;;;14.14;100.00
13695;BME280;6919;52.344;14.518;2023-05-23T06:45:10;100271.13;;;14.09;100.00
13695;BME280;6919;52.344;14.518;2023-05-23T06:47:42;100284.34;;;14.04;100.00
13695;BME280;6919;52.344;14.518;2023-05-23T06:50:11;100291.25;;;14.21;100.00
13695;BME280;6919;52.344;14.518;2023-05-23T06:52:40;100289.69;;;14.26;100.00
13695;BME280;6919;52.344;14.518;2023-05-23T06:55:09;100296.66;;;14.35;100.00
13695;BME280;6919;52.344;14.518;2023-05-23T06:57:40;100300.56;;;14.47;100.00
13695;BME280;6919;52.344;14.518;2023-05-23T07:00:11;100305.88;;;14.70;100.00
13695;BME280;6919;52.344;14.518;2023-05-23T07:02:40;100298.88;;;14.61;100.00
13695;BME280;6919;52.344;14.518;2023-05-23T07:05:11;100317.84;;;14.67;100.00
13695;BME280;6919;52.344;14.518;2023-05-23T07:07:39;100325.13;;;14.67;100.00
13695;BME280;6919;52.344;14.518;2023-05-23T07:10:09;100328.09;;;14.72;100.00
13695;BME280;6919;52.344;14.518;2023-05-23T07:12:37;100323.72;;;14.71;100.00
13695;BME280;6919;52.344;14.518;2023-05-23T07:15:07;100326.38;;;15.00;100.00
13695;BME280;6919;52.344;14.518;2023-05-23T07:17:37;100330.31;;;14.83;100.00
13695;BME280;6919;52.344;14.518;2023-05-23T07:20:07;100328.84;;;14.81;100.00
13695;BME280;6919;52.344;14.518;2023-05-23T07:22:36;100331.72;;;14.79;100.00
13695;BME280;6919;52.344;14.518;2023-05-23T07:25:06;100338.91;;;14.43;100.00
13695;BME280;6919;52.344;14.518;2023-05-23T07:27:34;100337.78;;;14.66;100.00
13695;BME280;6919;52.344;14.518;2023-05-23T07:30:04;100345.69;;;14.68;100.00
13695;BME280;6919;52.344;14.518;2023-05-23T07:32:33;100336.56;;;14.69;100.00
13695;BME280;6919;52.344;14.518;2023-05-23T07:35:03;100335.19;;;14.58;100.00
13695;BME280;6919;52.344;14.518;2023-05-23T07:37:32;100342.31;;;14.95;100.00
13695;BME280;6919;52.344;14.518;2023-05-23T07:40:00;100340.94;;;14.85;100.00
13695;BME280;6919;52.344;14.518;2023-05-23T07:42:29;100344.19;;;14.95;100.00
13695;BME280;6919;52.344;14.518;2023-05-23T07:44:58;100347.72;;;14.95;100.00
13695;BME280;6919;52.344;14.518;2023-05-23T07:47:27;100348.91;;;14.93;100.00
13695;BME280;6919;52.344;14.518;2023-05-23T07:49:55;100353.38;;;14.86;100.00
13695;BME280;6919;52.344;14.518;2023-05-23T07:52:25;100354.13;;;14.94;100.00
13695;BME280;6919;52.344;14.518;2023-05-23T07:54:53;100358.06;;;14.92;100.00
13695;BME280;6919;52.344;14.518;2023-05-23T07:57:21;100368.84;;;15.06;100.00
13695;BME280;6919;52.344;14.518;2023-05-23T07:59:51;100346.22;;;15.07;100.00
13695;BME280;6919;52.344;14.518;2023-05-23T08:02:20;100344.28;;;14.87;100.00
13695;BME280;6919;52.344;14.518;2023-05-23T08:04:48;100345.78;;;14.89;100.00
13695;BME280;6919;52.344;14.518;2023-05-23T08:07:17;100349.44;;;15.17;100.00
13695;BME280;6919;52.344;14.518;2023-05-23T08:09:47;100328.81;;;15.31;100.00
13695;BME280;6919;52.344;14.518;2023-05-23T08:12:15;100326.63;;;15.20;100.00
13695;BME280;6919;52.344;14.518;2023-05-23T08:14:43;100347.00;;;15.22;100.00
13695;BME280;6919;52.344;14.518;2023-05-23T08:17:18;100362.38;;;15.22;100.00
13695;BME280;6919;52.344;14.518;2023-05-23T08:19:47;100368.00;;;15.06;100.00
13695;BME280;6919;52.344;14.518;2023-05-23T08:22:15;100368.97;;;14.98;100.00
13695;BME280;6919;52.344;14.518;2023-05-23T08:24:44;100375.28;;;15.05;100.00
13695;BME280;6919;52.344;14.518;2023-05-23T08:27:13;100385.22;;;15.05;100.00
13695;BME280;6919;52.344;14.518;2023-05-23T08:29:42;100377.13;;;14.90;100.00
13695;BME280;6919;52.344;14.518;2023-05-23T08:32:10;100369.03;;;14.90;100.00
13695;BME280;6919;52.344;14.518;2023-05-23T08:34:39;100385.06;;;14.92;100.00
13695;BME280;6919;52.344;14.518;2023-05-23T08:37:08;100389.53;;;14.99;100.00
13695;BME280;6919;52.344;14.518;2023-05-23T08:39:37;100383.56;;;14.89;100.00
13695;BME280;6919;52.344;14.518;2023-05-23T08:42:05;100382.53;;;14.90;100.00
13695;BME280;6919;52.344;14.518;2023-05-23T08:44:35;100399.66;;;14.97;100.00
13695;BME280;6919;52.344;14.518;2023-05-23T08:47:04;100392.00;;;15.15;100.00
13695;BME280;6919;52.344;14.518;2023-05-23T08:49:37;100392.78;;;15.09;100.00
13695;BME280;6919;52.344;14.518;2023-05-23T08:52:11;100388.38;;;15.37;100.00
13695;BME280;6919;52.344;14.518;2023-05-23T08:54:42;100387.44;;;15.16;100.00
13695;BME280;6919;52.344;14.518;2023-05-23T08:57:11;100385.84;;;15.21;100.00
13695;BME280;6919;52.344;14.518;2023-05-23T08:59:42;100389.94;;;15.46;100.00
13695;BME280;6919;52.344;14.518;2023-05-23T09:02:11;100392.38;;;15.41;100.00
13695;BME280;6919;52.344;14.518;2023-05-23T09:04:39;100384.53;;;15.32;100.00
13695;BME280;6919;52.344;14.518;2023-05-23T09:07:10;100396.06;;;15.40;100.00
13695;BME280;6919;52.344;14.518;2023-05-23T09:09:40;100398.59;;;15.42;100.00
13695;BME280;6919;52.344;14.518;2023-05-23T09:12:08;100395.88;;;15.56;100.00
13695;BME280;6919;52.344;14.518;2023-05-23T09:14:41;100394.78;;;16.14;100.00
13695;BME280;6919;52.344;14.518;2023-05-23T09:17:17;100383.06;;;16.07;100.00
13695;BME280;6919;52.344;14.518;2023-05-23T09:19:45;100381.84;;;16.37;100.00
13695;BME280;6919;52.344;14.518;2023-05-23T09:22:14;100368.84;;;16.47;100.00
13695;BME280;6919;52.344;14.518;2023-05-23T09:24:43;100374.94;;;16.55;100.00
13695;BME280;6919;52.344;14.518;2023-05-23T09:27:11;100381.34;;;16.48;100.00
13695;BME280;6919;52.344;14.518;2023-05-23T09:29:40;100371.81;;;16.52;100.00
13695;BME280;6919;52.344;14.518;2023-05-23T09:32:14;100383.22;;;16.47;100.00
13695;BME280;6919;52.344;14.518;2023-05-23T09:34:55;100371.84;;;16.31;100.00
13695;BME280;6919;52.344;14.518;2023-05-23T09:37:29;100383.66;;;16.30;100.00
13695;BME280;6919;52.344;14.518;2023-05-23T09:40:00;100389.47;;;16.27;100.00
13695;BME280;6919;52.344;14.518;2023-05-23T09:42:31;100383.03;;;16.28;100.00
13695;BME280;6919;52.344;14.518;2023-05-23T09:45:03;100388.47;;;16.28;100.00
13695;BME280;6919;52.344;14.518;2023-05-23T09:47:32;100388.09;;;16.58;100.00
13695;BME280;6919;52.344;14.518;2023-05-23T09:50:00;100387.88;;;16.94;100.00
13695;BME280;6919;52.344;14.518;2023-05-23T09:52:35;100373.88;;;17.31;100.00
13695;BME280;6919;52.344;14.518;2023-05-23T09:55:06;100369.94;;;17.33;100.00
13695;BME280;6919;52.344;14.518;2023-05-23T09:57:37;100360.28;;;17.78;100.00
13695;BME280;6919;52.344;14.518;2023-05-23T10:00:11;100354.41;;;17.55;100.00
13695;BME280;6919;52.344;14.518;2023-05-23T10:02:54;100365.91;;;17.70;100.00
13695;BME280;6919;52.344;14.518;2023-05-23T10:05:35;100359.47;;;18.10;100.00
13695;BME280;6919;52.344;14.518;2023-05-23T10:08:09;100343.81;;;18.12;100.00
13695;BME280;6919;52.344;14.518;2023-05-23T10:14:18;100355.03;;;18.74;100.00
13695;BME280;6919;52.344;14.518;2023-05-23T10:17:05;100335.03;;;18.30;100.00
13695;BME280;6919;52.344;14.518;2023-05-23T10:19:42;100334.34;;;18.80;100.00
13695;BME280;6919;52.344;14.518;2023-05-23T10:22:13;100342.28;;;18.81;100.00
13695;BME280;6919;52.344;14.518;2023-05-23T10:24:44;100343.97;;;18.76;100.00
13695;BME280;6919;52.344;14.518;2023-05-23T10:27:14;100327.59;;;19.02;100.00
13695;BME280;6919;52.344;14.518;2023-05-23T10:29:43;100334.78;;;19.34;100.00
13695;BME280;6919;52.344;14.518;2023-05-23T10:32:14;100343.03;;;20.14;100.00
13695;BME280;6919;52.344;14.518;2023-05-23T10:34:58;100336.19;;;20.54;100.00
13695;BME280;6919;52.344;14.518;2023-05-23T10:37:34;100321.03;;;20.40;100.00
13695;BME280;6919;52.344;14.518;2023-05-23T10:40:19;100323.59;;;20.35;100.00
13695;BME280;6919;52.344;14.518;2023-05-23T10:42:56;100327.63;;;20.01;100.00
13695;BME280;6919;52.344;14.518;2023-05-23T10:45:28;100324.31;;;19.99;100.00
13695;BME280;6919;52.344;14.518;2023-05-23T10:47:59;100317.03;;;19.93;100.00
13695;BME280;6919;52.344;14.518;2023-05-23T10:50:33;100323.66;;;19.73;100.00
13695;BME280;6919;52.344;14.518;2023-05-23T10:53:04;100315.88;;;19.76;100.00
13695;BME280;6919;52.344;14.518;2023-05-23T10:55:34;100323.75;;;19.60;100.00
13695;BME280;6919;52.344;14.518;2023-05-23T10:58:15;100322.25;;;19.95;100.00
13695;BME280;6919;52.344;14.518;2023-05-23T11:00:53;100326.38;;;20.04;100.00
13695;BME280;6919;52.344;14.518;2023-05-23T11:03:35;100313.75;;;20.34;100.00
13695;BME280;6919;52.344;14.518;2023-05-23T11:06:05;100316.28;;;20.54;100.00
13695;BME280;6919;52.344;14.518;2023-05-23T11:08:38;100308.44;;;20.64;100.00
13695;BME280;6919;52.344;14.518;2023-05-23T11:11:14;100311.75;;;20.66;100.00
13695;BME280;6919;52.344;14.518;2023-05-23T11:13:57;100306.09;;;21.51;100.00
13695;BME280;6919;52.344;14.518;2023-05-23T11:16:31;100293.19;;;21.69;100.00
13695;BME280;6919;52.344;14.518;2023-05-23T11:19:27;100302.31;;;22.04;100.00
13695;BME280;6919;52.344;14.518;2023-05-23T11:22:00;100301.78;;;21.43;100.00
13695;BME280;6919;52.344;14.518;2023-05-23T11:24:50;100296.75;;;21.99;100.00
13695;BME280;6919;52.344;14.518;2023-05-23T11:27:26;100292.34;;;21.87;100.00
13695;BME280;6919;52.344;14.518;2023-05-23T11:30:01;100297.56;;;22.00;100.00
13695;BME280;6919;52.344;14.518;2023-05-23T11:32:30;100296.63;;;22.40;100.00
13695;BME280;6919;52.344;14.518;2023-05-23T11:35:02;100299.63;;;22.73;100.00
13695;BME280;6919;52.344;14.518;2023-05-23T11:37:31;100295.69;;;22.23;100.00
13695;BME280;6919;52.344;14.518;2023-05-23T11:40:28;100293.53;;;22.71;100.00
13695;BME280;6919;52.344;14.518;2023-05-23T11:42:57;100291.16;;;23.15;100.00
13695;BME280;6919;52.344;14.518;2023-05-23T11:45:28;100295.91;;;22.45;100.00
13695;BME280;6919;52.344;14.518;2023-05-23T11:47:57;100293.06;;;22.74;100.00
13695;BME280;6919;52.344;14.518;2023-05-23T11:50:27;100289.38;;;23.32;100.00
13695;BME280;6919;52.344;14.518;2023-05-23T11:52:56;100288.91;;;23.12;100.00
13695;BME280;6919;52.344;14.518;2023-05-23T11:55:24;100290.84;;;23.11;100.00
13695;BME280;6919;52.344;14.518;2023-05-23T11:57:55;100291.09;;;23.10;100.00
13695;BME280;6919;52.344;14.518;2023-05-23T12:00:24;100291.25;;;23.59;100.00
13695;BME280;6919;52.344;14.518;2023-05-23T12:02:53;100295.09;;;23.75;100.00
13695;BME280;6919;52.344;14.518;2023-05-23T12:05:22;100293.44;;;23.90;100.00
13695;BME280;6919;52.344;14.518;2023-05-23T12:07:51;100297.56;;;24.04;100.00
13695;BME280;6919;52.344;14.518;2023-05-23T12:10:20;100293.88;;;24.32;95.56
13695;BME280;6919;52.344;14.518;2023-05-23T12:12:50;100291.41;;;24.14;100.00
13695;BME280;6919;52.344;14.518;2023-05-23T12:15:25;100286.75;;;24.31;100.00
13695;BME280;6919;52.344;14.518;2023-05-23T12:17:55;100280.81;;;24.55;100.00
13695;BME280;6919;52.344;14.518;2023-05-23T12:20:25;100286.13;;;24.62;100.00
13695;BME280;6919;52.344;14.518;2023-05-23T12:22:56;100283.50;;;25.10;100.00
13695;BME280;6919;52.344;14.518;2023-05-23T12:25:24;100286.75;;;24.64;100.00
13695;BME280;6919;52.344;14.518;2023-05-23T12:27:53;100280.81;;;24.93;94.67
13695;BME280;6919;52.344;14.518;2023-05-23T12:30:22;100274.63;;;25.51;100.00
13695;BME280;6919;52.344;14.518;2023-05-23T12:32:50;100272.53;;;25.10;92.53
13695;BME280;6919;52.344;14.518;2023-05-23T12:35:18;100268.75;;;25.64;94.20
13695;BME280;6919;52.344;14.518;2023-05-23T12:37:50;100272.84;;;26.25;92.31
13695;BME280;6919;52.344;14.518;2023-05-23T12:40:22;100267.47;;;26.40;84.08
13695;BME280;6919;52.344;14.518;2023-05-23T12:42:52;100263.53;;;26.72;76.77
13695;BME280;6919;52.344;14.518;2023-05-23T12:45:23;100265.38;;;26.57;75.62
13695;BME280;6919;52.344;14.518;2023-05-23T12:47:52;100262.50;;;27.65;74.75
13695;BME280;6919;52.344;14.518;2023-05-23T12:50:20;100269.41;;;26.91;75.50
13695;BME280;6919;52.344;14.518;2023-05-23T12:52:49;100266.28;;;26.72;71.84
13695;BME280;6919;52.344;14.518;2023-05-23T12:55:18;100263.63;;;28.19;65.91
13695;BME280;6919;52.344;14.518;2023-05-23T12:57:48;100261.44;;;27.86;65.20
13695;BME280;6919;52.344;14.518;2023-05-23T13:00:18;100257.69;;;27.15;69.61